sensor_id;sensor_type;location;lat;lon;timestamp;temperature;humidity
11221;DHT22;8517;53.546;10.104;2023-06-14T00:01:50;18.90;99.90
11221;DHT22;8517;53.546;10.104;2023-06-14T00:04:17;18.80;99.90
11221;DHT22;8517;53.546;10.104;2023-06-14T00:06:44;18.80;99.90
11221;DHT22;8517;53.546;10.104;2023-06-14T00:09:12;18.80;99.90
11221;DHT22;8517;53.546;10.104;2023-06-14T00:11:39;18.80;99.90
11221;DHT22;8517;53.546;10.104;2023-06-14T00:14:06;18.70;99.90
11221;DHT22;8517;53.546;10.104;2023-06-14T00:16:33;18.70;99.90
11221;DHT22;8517;53.546;10.104;2023-06-14T00:19:00;18.70;99.90
11221;DHT22;8517;53.546;10.104;2023-06-14T00:21:29;18.70;99.90
11221;DHT22;8517;53.546;10.104;2023-06-14T00:23:56;18.70;99.90
11221;DHT22;8517;53.546;10.104;2023-06-14T00:26:24;18.70;99.90
11221;DHT22;8517;53.546;10.104;2023-06-14T00:28:51;18.60;99.90
11221;DHT22;8517;53.546;10.104;2023-06-14T00:31:18;18.60;99.90
11221;DHT22;8517;53.546;10.104;2023-06-14T00:33:45;18.60;99.90
11221;DHT22;8517;53.546;10.104;2023-06-14T00:36:12;18.60;99.90
11221;DHT22;8517;53.546;10.104;2023-06-14T00:38:38;18.60;99.90
11221;DHT22;8517;53.546;10.104;2023-06-14T00:41:05;18.50;99.90
11221;DHT22;8517;53.546;10.104;2023-06-14T00:43:33;18.50;99.90
11221;DHT22;8517;53.546;10.104;2023-06-14T00:46:01;18.50;99.90
11221;DHT22;8517;53.546;10.104;2023-06-14T00:48:28;18.50;99.90
11221;DHT22;8517;53.546;10.104;2023-06-14T00:50:57;18.50;99.90
11221;DHT22;8517;53.546;10.104;2023-06-14T00:53:24;18.50;99.90
11221;DHT22;8517;53.546;10.104;2023-06-14T00:55:51;18.40;99.90
11221;DHT22;8517;53.546;10.104;2023-06-14T00:58:18;18.40;99.90
11221;DHT22;8517;53.546;10.104;2023-06-14T01:00:47;18.40;99.90
11221;DHT22;8517;53.546;10.104;2023-06-14T01:03:14;18.40;99.90
11221;DHT22;8517;53.546;10.104;2023-06-14T01:05:47;18.40;99.90
11221;DHT22;8517;53.546;10.104;2023-06-14T01:08:21;18.40;99.90
11221;DHT22;8517;53.546;10.104;2023-06-14T01:10:59;18.40;99.90
11221;DHT22;8517;53.546;10.104;2023-06-14T01:13:33;18.30;99.90
11221;DHT22;8517;53.546;10.104;2023-06-14T01:16:03;18.30;99.90
11221;DHT22;8517;53.546;10.104;2023-06-14T01:18:30;18.30;99.90
11221;DHT22;8517;53.546;10.104;2023-06-14T01:20:57;18.30;99.90
11221;DHT22;8517;53.546;10.104;2023-06-14T01:23:26;18.30;99.90
11221;DHT22;8517;53.546;10.104;2023-06-14T01:25:58;18.30;99.90
11221;DHT22;8517;53.546;10.104;2023-06-14T01:28:26;18.30;99.90
11221;DHT22;8517;53.546;10.104;2023-06-14T01:31:00;18.20;99.90
11221;DHT22;8517;53.546;10.104;2023-06-14T01:33:30;18.20;99.90
11221;DHT22;8517;53.546;10.104;2023-06-14T01:35:58;18.20;99.90
11221;DHT22;8517;53.546;10.104;2023-06-14T01:38:27;18.20;99.90
11221;DHT22;8517;53.546;10.104;2023-06-14T01:40:55;18.20;99.90
11221;DHT22;8517;53.546;10.104;2023-06-14T01:43:23;18.10;99.90
11221;DHT22;8517;53.546;10.104;2023-06-14T01:45:51;18.10;99.90
11221;DHT22;8517;53.546;10.104;2023-06-14T01:48:20;18.10;99.90
11221;DHT22;8517;53.546;10.104;2023-06-14T01:50:48;18.10;99.90
11221;DHT22;8517;53.546;10.104;2023-06-14T01:53:15;18.10;99.90
11221;DHT22;8517;53.546;10.104;2023-06-14T01:55:43;18.10;99.90
11221;DHT22;8517;53.546;10.104;2023-06-14T01:58:14;18.00;99.90
11221;DHT22;8517;53.546;10.104;2023-06-14T02:00:41;18.00;99.90
11221;DHT22;8517;53.546;10.104;2023-06-14T02:03:10;17.90;99.90
11221;DHT22;8517;53.546;10.104;2023-06-14T02:05:38;17.90;99.90
11221;DHT22;8517;53.546;10.104;2023-06-14T02:08:05;17.90;99.90
11221;DHT22;8517;53.546;10.104;2023-06-14T02:10:32;17.90;99.90
11221;DHT22;8517;53.546;10.104;2023-06-14T02:13:00;17.80;99.90
11221;DHT22;8517;53.546;10.104;2023-06-14T02:15:27;17.80;99.90
11221;DHT22;8517;53.546;10.104;2023-06-14T02:17:59;17.80;99.90
11221;DHT22;8517;53.546;10.104;2023-06-14T02:20:26;17.80;99.90
11221;DHT22;8517;53.546;10.104;2023-06-14T02:22:53;17.70;99.90
11221;DHT22;8517;53.546;10.104;2023-06-14T02:25:20;17.70;99.90
11221;DHT22;8517;53.546;10.104;2023-06-14T02:27:47;17.70;99.90
11221;DHT22;8517;53.546;10.104;2023-06-14T02:30:15;17.60;99.90
11221;DHT22;8517;53.546;10.104;2023-06-14T02:32:42;17.60;99.90
11221;DHT22;8517;53.546;10.104;2023-06-14T02:35:09;17.60;99.90
11221;DHT22;8517;53.546;10.104;2023-06-14T02:37:36;17.50;99.90
11221;DHT22;8517;53.546;10.104;2023-06-14T02:40:04;17.50;99.90
11221;DHT22;8517;53.546;10.104;2023-06-14T02:42:31;17.50;99.90
11221;DHT22;8517;53.546;10.104;2023-06-14T02:44:58;17.40;99.90
11221;DHT22;8517;53.546;10.104;2023-06-14T02:47:27;17.40;99.90
11221;DHT22;8517;53.546;10.104;2023-06-14T02:49:54;17.40;99.90
11221;DHT22;8517;53.546;10.104;2023-06-14T02:52:21;17.40;99.90
11221;DHT22;8517;53.546;10.104;2023-06-14T02:54:50;17.30;99.90
11221;DHT22;8517;53.546;10.104;2023-06-14T02:57:17;17.30;99.90
11221;DHT22;8517;53.546;10.104;2023-06-14T02:59:44;17.30;99.90
11221;DHT22;8517;53.546;10.104;2023-06-14T03:02:11;17.30;99.90
11221;DHT22;8517;53.546;10.104;2023-06-14T03:04:39;17.30;99.90
11221;DHT22;8517;53.546;10.104;2023-06-14T03:07:06;17.30;99.90
11221;DHT22;8517;53.546;10.104;2023-06-14T03:09:35;17.30;99.90
11221;DHT22;8517;53.546;10.104;2023-06-14T03:12:02;17.30;99.90
11221;DHT22;8517;53.546;10.104;2023-06-14T03:14:29;17.20;99.90
11221;DHT22;8517;53.546;10.104;2023-06-14T03:16:56;17.30;99.90
11221;DHT22;8517;53.546;10.104;2023-06-14T03:19:24;17.30;99.90
11221;DHT22;8517;53.546;10.104;2023-06-14T03:21:53;17.20;99.90
11221;DHT22;8517;53.546;10.104;2023-06-14T03:24:22;17.20;99.90
11221;DHT22;8517;53.546;10.104;2023-06-14T03:26:52;17.20;99.90
11221;DHT22;8517;53.546;10.104;2023-06-14T03:29:19;17.20;99.90
11221;DHT22;8517;53.546;10.104;2023-06-14T03:31:57;17.20;99.90
11221;DHT22;8517;53.546;10.104;2023-06-14T03:34:24;17.20;99.90
11221;DHT22;8517;53.546;10.104;2023-06-14T03:36:53;17.10;99.90
11221;DHT22;8517;53.546;10.104;2023-06-14T03:39:22;17.10;99.90
11221;DHT22;8517;53.546;10.104;2023-06-14T03:41:49;17.10;99.90
11221;DHT22;8517;53.546;10.104;2023-06-14T03:44:17;17.10;99.90
11221;DHT22;8517;53.546;10.104;2023-06-14T03:46:44;17.20;99.90
11221;DHT22;8517;53.546;10.104;2023-06-14T03:49:11;17.20;99.90
11221;DHT22;8517;53.546;10.104;2023-06-14T03:51:38;17.20;99.90
11221;DHT22;8517;53.546;10.104;2023-06-14T03:54:07;17.20;99.90
11221;DHT22;8517;53.546;10.104;2023-06-14T03:56:34;17.20;99.90
11221;DHT22;8517;53.546;10.104;2023-06-14T03:59:01;17.20;99.90
11221;DHT22;8517;53.546;10.104;2023-06-14T04:01:28;17.30;99.90
11221;DHT22;8517;53.546;10.104;2023-06-14T04:03:56;17.30;99.90
11221;DHT22;8517;53.546;10.104;2023-06-14T04:06:24;17.40;99.90
11221;DHT22;8517;53.546;10.104;2023-06-14T04:08:58;17.40;99.90
11221;DHT22;8517;53.546;10.104;2023-06-14T04:11:31;17.50;99.90
11221;DHT22;8517;53.546;10.104;2023-06-14T04:13:58;17.50;99.90
11221;DHT22;8517;53.546;10.104;2023-06-14T04:16:25;17.60;99.90
11221;DHT22;8517;53.546;10.104;2023-06-14T04:18:52;17.60;99.90
11221;DHT22;8517;53.546;10.104;2023-06-14T04:21:18;17.60;99.90
11221;DHT22;8517;53.546;10.104;2023-06-14T04:23:45;17.70;99.90
11221;DHT22;8517;53.546;10.104;2023-06-14T04:26:12;17.70;99.90
11221;DHT22;8517;53.546;10.104;2023-06-14T04:28:41;17.80;99.90
11221;DHT22;8517;53.546;10.104;2023-06-14T04:31:08;17.80;99.90
11221;DHT22;8517;53.546;10.104;2023-06-14T04:33:35;17.90;99.90
11221;DHT22;8517;53.546;10.104;2023-06-14T04:36:09;17.90;99.90
11221;DHT22;8517;53.546;10.104;2023-06-14T04:38:35;18.00;99.90
11221;DHT22;8517;53.546;10.104;2023-06-14T04:41:02;18.10;99.90
11221;DHT22;8517;53.546;10.104;2023-06-14T04:43:29;18.20;99.90
11221;DHT22;8517;53.546;10.104;2023-06-14T04:45:58;18.20;99.90
11221;DHT22;8517;53.546;10.104;2023-06-14T04:48:26;18.30;99.90
11221;DHT22;8517;53.546;10.104;2023-06-14T04:50:53;18.30;99.90
11221;DHT22;8517;53.546;10.104;2023-06-14T04:53:21;18.40;99.90
11221;DHT22;8517;53.546;10.104;2023-06-14T04:55:48;18.40;99.90
11221;DHT22;8517;53.546;10.104;2023-06-14T04:58:15;18.50;99.90
11221;DHT22;8517;53.546;10.104;2023-06-14T05:00:42;18.60;99.90
11221;DHT22;8517;53.546;10.104;2023-06-14T05:03:11;18.60;99.90
11221;DHT22;8517;53.546;10.104;2023-06-14T05:05:39;18.70;99.90
11221;DHT22;8517;53.546;10.104;2023-06-14T05:08:06;18.80;99.90
11221;DHT22;8517;53.546;10.104;2023-06-14T05:10:33;18.80;99.90
11221;DHT22;8517;53.546;10.104;2023-06-14T05:13:00;18.90;99.90
11221;DHT22;8517;53.546;10.104;2023-06-14T05:15:27;19.00;99.90
11221;DHT22;8517;53.546;10.104;2023-06-14T05:17:54;19.00;99.90
11221;DHT22;8517;53.546;10.104;2023-06-14T05:20:22;19.10;99.90
11221;DHT22;8517;53.546;10.104;2023-06-14T05:22:50;19.20;99.90
11221;DHT22;8517;53.546;10.104;2023-06-14T05:25:18;19.30;99.90
11221;DHT22;8517;53.546;10.104;2023-06-14T05:27:45;19.40;99.90
11221;DHT22;8517;53.546;10.104;2023-06-14T05:30:12;19.50;99.90
11221;DHT22;8517;53.546;10.104;2023-06-14T05:32:40;19.60;99.90
11221;DHT22;8517;53.546;10.104;2023-06-14T05:35:07;19.80;99.90
11221;DHT22;8517;53.546;10.104;2023-06-14T05:37:35;19.90;99.90
11221;DHT22;8517;53.546;10.104;2023-06-14T05:40:02;20.00;99.90
11221;DHT22;8517;53.546;10.104;2023-06-14T05:42:31;20.10;99.90
11221;DHT22;8517;53.546;10.104;2023-06-14T05:44:58;20.10;99.90
11221;DHT22;8517;53.546;10.104;2023-06-14T05:47:25;20.10;99.90
11221;DHT22;8517;53.546;10.104;2023-06-14T05:49:53;20.20;99.90
11221;DHT22;8517;53.546;10.104;2023-06-14T05:52:20;20.20;99.90
11221;DHT22;8517;53.546;10.104;2023-06-14T05:54:48;20.30;99.90
11221;DHT22;8517;53.546;10.104;2023-06-14T05:57:15;20.30;99.90
11221;DHT22;8517;53.546;10.104;2023-06-14T05:59:42;20.40;99.90
11221;DHT22;8517;53.546;10.104;2023-06-14T06:02:09;20.40;99.90
11221;DHT22;8517;53.546;10.104;2023-06-14T06:04:36;20.50;99.90
11221;DHT22;8517;53.546;10.104;2023-06-14T06:07:03;20.60;99.90
11221;DHT22;8517;53.546;10.104;2023-06-14T06:09:30;20.60;99.90
11221;DHT22;8517;53.546;10.104;2023-06-14T06:11:58;20.80;99.90
11221;DHT22;8517;53.546;10.104;2023-06-14T06:14:25;21.00;99.90
11221;DHT22;8517;53.546;10.104;2023-06-14T06:16:53;21.20;99.90
11221;DHT22;8517;53.546;10.104;2023-06-14T06:19:20;21.40;99.90
11221;DHT22;8517;53.546;10.104;2023-06-14T06:21:47;21.60;99.90
11221;DHT22;8517;53.546;10.104;2023-06-14T06:24:14;21.80;99.90
11221;DHT22;8517;53.546;10.104;2023-06-14T06:26:40;22.00;99.90
11221;DHT22;8517;53.546;10.104;2023-06-14T06:29:08;22.40;99.90
11221;DHT22;8517;53.546;10.104;2023-06-14T06:31:35;22.70;99.90
11221;DHT22;8517;53.546;10.104;2023-06-14T06:34:02;23.00;99.90
11221;DHT22;8517;53.546;10.104;2023-06-14T06:36:29;23.20;99.90
11221;DHT22;8517;53.546;10.104;2023-06-14T06:38:56;23.50;99.90
11221;DHT22;8517;53.546;10.104;2023-06-14T06:41:22;23.70;99.90
11221;DHT22;8517;53.546;10.104;2023-06-14T06:43:49;23.90;99.90
11221;DHT22;8517;53.546;10.104;2023-06-14T06:46:17;24.10;99.90
11221;DHT22;8517;53.546;10.104;2023-06-14T06:48:44;24.40;99.90
11221;DHT22;8517;53.546;10.104;2023-06-14T06:51:11;24.60;99.90
11221;DHT22;8517;53.546;10.104;2023-06-14T06:53:39;24.80;99.90
11221;DHT22;8517;53.546;10.104;2023-06-14T06:56:07;25.00;99.90
11221;DHT22;8517;53.546;10.104;2023-06-14T06:58:34;25.20;99.90
11221;DHT22;8517;53.546;10.104;2023-06-14T07:01:00;25.40;99.90
11221;DHT22;8517;53.546;10.104;2023-06-14T07:03:29;25.60;99.90
11221;DHT22;8517;53.546;10.104;2023-06-14T07:05:55;25.70;99.90
11221;DHT22;8517;53.546;10.104;2023-06-14T07:08:22;25.90;99.90
11221;DHT22;8517;53.546;10.104;2023-06-14T07:10:49;26.10;99.90
11221;DHT22;8517;53.546;10.104;2023-06-14T07:13:16;26.30;99.90
11221;DHT22;8517;53.546;10.104;2023-06-14T07:15:42;26.50;99.90
11221;DHT22;8517;53.546;10.104;2023-06-14T07:18:09;26.60;99.90
11221;DHT22;8517;53.546;10.104;2023-06-14T07:20:37;26.80;99.90
11221;DHT22;8517;53.546;10.104;2023-06-14T07:23:05;27.00;99.90
11221;DHT22;8517;53.546;10.104;2023-06-14T07:25:32;27.10;99.90
11221;DHT22;8517;53.546;10.104;2023-06-14T07:27:59;27.30;99.90
11221;DHT22;8517;53.546;10.104;2023-06-14T07:30:26;27.50;99.90
11221;DHT22;8517;53.546;10.104;2023-06-14T07:32:53;27.50;99.90
11221;DHT22;8517;53.546;10.104;2023-06-14T07:35:20;27.70;99.90
11221;DHT22;8517;53.546;10.104;2023-06-14T07:37:48;27.80;99.90
11221;DHT22;8517;53.546;10.104;2023-06-14T07:40:15;27.90;99.90
11221;DHT22;8517;53.546;10.104;2023-06-14T07:42:42;28.00;98.30
11221;DHT22;8517;53.546;10.104;2023-06-14T07:45:09;28.10;99.30
11221;DHT22;8517;53.546;10.104;2023-06-14T07:47:36;28.10;99.90
11221;DHT22;8517;53.546;10.104;2023-06-14T07:50:04;28.10;99.90
11221;DHT22;8517;53.546;10.104;2023-06-14T07:52:31;28.10;99.90
11221;DHT22;8517;53.546;10.104;2023-06-14T07:54:59;28.20;99.90
11221;DHT22;8517;53.546;10.104;2023-06-14T07:57:26;28.20;99.90
11221;DHT22;8517;53.546;10.104;2023-06-14T07:59:52;28.20;99.90
11221;DHT22;8517;53.546;10.104;2023-06-14T08:02:19;28.30;99.90
11221;DHT22;8517;53.546;10.104;2023-06-14T08:04:46;28.30;99.90
11221;DHT22;8517;53.546;10.104;2023-06-14T08:07:13;28.40;99.30
11221;DHT22;8517;53.546;10.104;2023-06-14T08:09:40;28.40;99.40
11221;DHT22;8517;53.546;10.104;2023-06-14T08:12:09;28.40;99.00
11221;DHT22;8517;53.546;10.104;2023-06-14T08:14:36;28.30;98.40
11221;DHT22;8517;53.546;10.104;2023-06-14T08:17:03;28.30;98.30
11221;DHT22;8517;53.546;10.104;2023-06-14T08:19:30;28.20;97.60
11221;DHT22;8517;53.546;10.104;2023-06-14T08:21:57;28.20;97.50
11221;DHT22;8517;53.546;10.104;2023-06-14T08:24:23;28.10;97.20
11221;DHT22;8517;53.546;10.104;2023-06-14T08:26:52;28.10;97.60
11221;DHT22;8517;53.546;10.104;2023-06-14T08:29:20;28.00;97.50
11221;DHT22;8517;53.546;10.104;2023-06-14T08:31:47;27.90;97.50
11221;DHT22;8517;53.546;10.104;2023-06-14T08:34:14;27.80;97.00
11221;DHT22;8517;53.546;10.104;2023-06-14T08:36:41;27.80;97.20
11221;DHT22;8517;53.546;10.104;2023-06-14T08:39:07;27.70;97.10
11221;DHT22;8517;53.546;10.104;2023-06-14T08:41:35;27.70;97.00
11221;DHT22;8517;53.546;10.104;2023-06-14T08:44:02;27.70;96.60
11221;DHT22;8517;53.546;10.104;2023-06-14T08:46:35;27.60;96.30
11221;DHT22;8517;53.546;10.104;2023-06-14T08:49:08;27.60;96.20
11221;DHT22;8517;53.546;10.104;2023-06-14T08:51:38;27.60;96.80
11221;DHT22;8517;53.546;10.104;2023-06-14T08:54:06;27.60;95.40
11221;DHT22;8517;53.546;10.104;2023-06-14T08:56:34;27.60;95.40
11221;DHT22;8517;53.546;10.104;2023-06-14T08:59:03;27.60;94.90
11221;DHT22;8517;53.546;10.104;2023-06-14T09:01:35;27.60;94.80
11221;DHT22;8517;53.546;10.104;2023-06-14T09:04:02;27.60;93.90
11221;DHT22;8517;53.546;10.104;2023-06-14T09:06:31;27.60;94.80
11221;DHT22;8517;53.546;10.104;2023-06-14T09:08:58;27.60;94.90
11221;DHT22;8517;53.546;10.104;2023-06-14T09:11:25;27.70;94.40
11221;DHT22;8517;53.546;10.104;2023-06-14T09:13:52;27.70;94.10
11221;DHT22;8517;53.546;10.104;2023-06-14T09:16:19;27.70;94.00
11221;DHT22;8517;53.546;10.104;2023-06-14T09:18:47;27.70;93.80
11221;DHT22;8517;53.546;10.104;2023-06-14T09:21:15;27.80;93.30
11221;DHT22;8517;53.546;10.104;2023-06-14T09:23:43;27.80;92.50
11221;DHT22;8517;53.546;10.104;2023-06-14T09:26:12;27.80;91.80
11221;DHT22;8517;53.546;10.104;2023-06-14T09:28:41;27.70;92.40
11221;DHT22;8517;53.546;10.104;2023-06-14T09:31:11;27.70;92.40
11221;DHT22;8517;53.546;10.104;2023-06-14T09:33:38;27.70;91.70
11221;DHT22;8517;53.546;10.104;2023-06-14T09:36:10;27.70;92.50
11221;DHT22;8517;53.546;10.104;2023-06-14T09:38:38;27.60;92.80
11221;DHT22;8517;53.546;10.104;2023-06-14T09:41:06;27.60;93.20
11221;DHT22;8517;53.546;10.104;2023-06-14T09:43:33;27.60;92.40
11221;DHT22;8517;53.546;10.104;2023-06-14T09:46:01;27.60;92.60
11221;DHT22;8517;53.546;10.104;2023-06-14T09:48:27;27.50;92.10
11221;DHT22;8517;53.546;10.104;2023-06-14T09:50:55;27.50;91.70
11221;DHT22;8517;53.546;10.104;2023-06-14T09:53:26;27.50;91.20
11221;DHT22;8517;53.546;10.104;2023-06-14T09:55:55;27.40;91.40
11221;DHT22;8517;53.546;10.104;2023-06-14T09:58:26;27.40;92.00
11221;DHT22;8517;53.546;10.104;2023-06-14T10:00:54;27.30;91.90
11221;DHT22;8517;53.546;10.104;2023-06-14T10:03:25;27.30;91.90
11221;DHT22;8517;53.546;10.104;2023-06-14T10:05:55;27.20;91.10
11221;DHT22;8517;53.546;10.104;2023-06-14T10:08:30;27.10;91.60
11221;DHT22;8517;53.546;10.104;2023-06-14T10:10:58;27.00;92.20
11221;DHT22;8517;53.546;10.104;2023-06-14T10:13:26;27.10;92.90
11221;DHT22;8517;53.546;10.104;2023-06-14T10:16:02;27.20;93.00
11221;DHT22;8517;53.546;10.104;2023-06-14T10:18:35;27.30;91.70
11221;DHT22;8517;53.546;10.104;2023-06-14T10:21:12;27.50;91.00
11221;DHT22;8517;53.546;10.104;2023-06-14T10:23:42;27.60;90.90
11221;DHT22;8517;53.546;10.104;2023-06-14T10:26:19;27.60;91.70
11221;DHT22;8517;53.546;10.104;2023-06-14T10:28:56;27.70;91.90
11221;DHT22;8517;53.546;10.104;2023-06-14T10:31:40;27.90;91.30
11221;DHT22;8517;53.546;10.104;2023-06-14T10:34:07;28.10;91.40
11221;DHT22;8517;53.546;10.104;2023-06-14T10:36:34;28.30;91.10
11221;DHT22;8517;53.546;10.104;2023-06-14T10:39:05;28.50;90.80
11221;DHT22;8517;53.546;10.104;2023-06-14T10:41:38;28.60;90.50
11221;DHT22;8517;53.546;10.104;2023-06-14T10:44:40;28.70;91.00
11221;DHT22;8517;53.546;10.104;2023-06-14T10:47:09;28.80;91.40
11221;DHT22;8517;53.546;10.104;2023-06-14T10:49:41;29.00;91.40
11221;DHT22;8517;53.546;10.104;2023-06-14T10:52:10;29.30;90.70
11221;DHT22;8517;53.546;10.104;2023-06-14T10:57:45;29.70;88.00
11221;DHT22;8517;53.546;10.104;2023-06-14T11:00:14;29.70;82.90
11221;DHT22;8517;53.546;10.104;2023-06-14T11:05:52;29.60;84.80
11221;DHT22;8517;53.546;10.104;2023-06-14T11:08:33;29.60;85.40
11221;DHT22;8517;53.546;10.104;2023-06-14T11:11:07;29.60;84.00
11221;DHT22;8517;53.546;10.104;2023-06-14T11:13:37;29.50;83.70
11221;DHT22;8517;53.546;10.104;2023-06-14T11:16:10;29.30;82.70
11221;DHT22;8517;53.546;10.104;2023-06-14T11:18:37;29.20;82.30
11221;DHT22;8517;53.546;10.104;2023-06-14T11:21:04;29.00;82.00
11221;DHT22;8517;53.546;10.104;2023-06-14T11:23:31;28.80;80.50
11221;DHT22;8517;53.546;10.104;2023-06-14T11:25:57;28.60;81.30
11221;DHT22;8517;53.546;10.104;2023-06-14T11:28:36;28.50;81.40
11221;DHT22;8517;53.546;10.104;2023-06-14T11:31:04;28.40;81.70
11221;DHT22;8517;53.546;10.104;2023-06-14T11:33:31;28.40;82.10
11221;DHT22;8517;53.546;10.104;2023-06-14T11:35:57;28.30;82.00
11221;DHT22;8517;53.546;10.104;2023-06-14T11:38:25;28.30;82.50
11221;DHT22;8517;53.546;10.104;2023-06-14T11:40:52;28.20;83.40
11221;DHT22;8517;53.546;10.104;2023-06-14T11:43:18;28.10;83.10
11221;DHT22;8517;53.546;10.104;2023-06-14T11:45:49;27.90;84.50
11221;DHT22;8517;53.546;10.104;2023-06-14T11:48:16;27.80;84.40
11221;DHT22;8517;53.546;10.104;2023-06-14T11:50:43;27.70;84.30
11221;DHT22;8517;53.546;10.104;2023-06-14T11:53:10;27.60;84.60
11221;DHT22;8517;53.546;10.104;2023-06-14T11:55:37;27.60;84.70
11221;DHT22;8517;53.546;10.104;2023-06-14T11:58:04;27.60;85.00
11221;DHT22;8517;53.546;10.104;2023-06-14T12:00:32;27.50;84.80
11221;DHT22;8517;53.546;10.104;2023-06-14T12:05:28;27.40;84.50
11221;DHT22;8517;53.546;10.104;2023-06-14T12:07:58;27.40;84.80
11221;DHT22;8517;53.546;10.104;2023-06-14T12:10:26;27.30;85.50
11221;DHT22;8517;53.546;10.104;2023-06-14T12:12:57;27.30;85.90
11221;DHT22;8517;53.546;10.104;2023-06-14T12:15:24;27.20;86.40
11221;DHT22;8517;53.546;10.104;2023-06-14T12:17:54;27.10;86.70
11221;DHT22;8517;53.546;10.104;2023-06-14T12:20:29;27.10;86.00
11221;DHT22;8517;53.546;10.104;2023-06-14T12:23:04;27.00;86.20
11221;DHT22;8517;53.546;10.104;2023-06-14T12:25:32;27.00;85.90
11221;DHT22;8517;53.546;10.104;2023-06-14T12:28:03;27.10;86.80
11221;DHT22;8517;53.546;10.104;2023-06-14T12:30:30;27.10;87.00
11221;DHT22;8517;53.546;10.104;2023-06-14T12:32:57;27.00;86.60
11221;DHT22;8517;53.546;10.104;2023-06-14T12:35:25;27.00;87.30
11221;DHT22;8517;53.546;10.104;2023-06-14T12:37:52;26.90;87.50
11221;DHT22;8517;53.546;10.104;2023-06-14T12:40:19;26.90;87.70
11221;DHT22;8517;53.546;10.104;2023-06-14T12:42:46;27.00;87.70
11221;DHT22;8517;53.546;10.104;2023-06-14T12:45:13;27.00;88.50
11221;DHT22;8517;53.546;10.104;2023-06-14T12:47:41;27.00;87.80
11221;DHT22;8517;53.546;10.104;2023-06-14T12:50:08;27.10;88.80
11221;DHT22;8517;53.546;10.104;2023-06-14T12:52:36;27.10;88.70
11221;DHT22;8517;53.546;10.104;2023-06-14T12:55:04;27.10;89.20
11221;DHT22;8517;53.546;10.104;2023-06-14T12:57:32;27.20;88.50
11221;DHT22;8517;53.546;10.104;2023-06-14T13:00:02;27.30;88.30
11221;DHT22;8517;53.546;10.104;2023-06-14T13:02:31;27.30;88.50
11221;DHT22;8517;53.546;10.104;2023-06-14T13:04:58;27.40;87.90
11221;DHT22;8517;53.546;10.104;2023-06-14T13:07:25;27.50;87.50
11221;DHT22;8517;53.546;10.104;2023-06-14T13:09:53;27.50;86.90
11221;DHT22;8517;53.546;10.104;2023-06-14T13:12:20;27.60;86.50
11221;DHT22;8517;53.546;10.104;2023-06-14T13:14:47;27.50;86.40
11221;DHT22;8517;53.546;10.104;2023-06-14T13:17:14;27.50;86.30
11221;DHT22;8517;53.546;10.104;2023-06-14T13:19:41;27.50;86.50
11221;DHT22;8517;53.546;10.104;2023-06-14T13:22:08;27.50;86.60
11221;DHT22;8517;53.546;10.104;2023-06-14T13:24:35;27.50;86.70
11221;DHT22;8517;53.546;10.104;2023-06-14T13:27:04;27.50;86.90
11221;DHT22;8517;53.546;10.104;2023-06-14T13:29:32;27.50;87.00
11221;DHT22;8517;53.546;10.104;2023-06-14T13:32:01;27.60;87.00
11221;DHT22;8517;53.546;10.104;2023-06-14T13:34:28;27.60;86.90
11221;DHT22;8517;53.546;10.104;2023-06-14T13:37:12;27.60;86.60
11221;DHT22;8517;53.546;10.104;2023-06-14T13:39:39;27.70;85.70
11221;DHT22;8517;53.546;10.104;2023-06-14T13:42:08;27.80;85.00
11221;DHT22;8517;53.546;10.104;2023-06-14T13:44:36;27.70;85.00
11221;DHT22;8517;53.546;10.104;2023-06-14T13:47:03;27.60;84.80
11221;DHT22;8517;53.546;10.104;2023-06-14T13:49:30;27.60;84.60
11221;DHT22;8517;53.546;10.104;2023-06-14T13:51:57;27.70;85.10
11221;DHT22;8517;53.546;10.104;2023-06-14T13:54:26;27.60;85.80
11221;DHT22;8517;53.546;10.104;2023-06-14T13:56:53;27.70;86.40
11221;DHT22;8517;53.546;10.104;2023-06-14T13:59:22;27.70;85.30
11221;DHT22;8517;53.546;10.104;2023-06-14T14:01:48;27.80;84.80
11221;DHT22;8517;53.546;10.104;2023-06-14T14:04:15;27.70;84.20
11221;DHT22;8517;53.546;10.104;2023-06-14T14:06:42;27.70;83.80
11221;DHT22;8517;53.546;10.104;2023-06-14T14:09:09;27.70;83.40
11221;DHT22;8517;53.546;10.104;2023-06-14T14:11:36;27.60;82.00
11221;DHT22;8517;53.546;10.104;2023-06-14T14:14:05;27.50;81.80
11221;DHT22;8517;53.546;10.104;2023-06-14T14:16:33;27.40;82.20
11221;DHT22;8517;53.546;10.104;2023-06-14T14:19:00;27.40;82.90
11221;DHT22;8517;53.546;10.104;2023-06-14T14:21:27;27.30;84.10
11221;DHT22;8517;53.546;10.104;2023-06-14T14:23:54;27.30;83.90
11221;DHT22;8517;53.546;10.104;2023-06-14T14:26:21;27.40;83.40
11221;DHT22;8517;53.546;10.104;2023-06-14T14:28:49;27.40;83.00
11221;DHT22;8517;53.546;10.104;2023-06-14T14:31:16;27.30;83.20
11221;DHT22;8517;53.546;10.104;2023-06-14T14:33:44;27.30;84.00
11221;DHT22;8517;53.546;10.104;2023-06-14T14:36:11;27.30;85.50
11221;DHT22;8517;53.546;10.104;2023-06-14T14:38:39;27.30;84.70
11221;DHT22;8517;53.546;10.104;2023-06-14T14:41:05;27.30;84.00
11221;DHT22;8517;53.546;10.104;2023-06-14T14:43:32;27.40;83.70
11221;DHT22;8517;53.546;10.104;2023-06-14T14:45:59;27.50;83.80
11221;DHT22;8517;53.546;10.104;2023-06-14T14:48:26;27.50;82.50
11221;DHT22;8517;53.546;10.104;2023-06-14T14:50:54;27.60;82.30
11221;DHT22;8517;53.546;10.104;2023-06-14T14:53:21;27.60;81.60
11221;DHT22;8517;53.546;10.104;2023-06-14T14:55:48;27.60;82.60
11221;DHT22;8517;53.546;10.104;2023-06-14T14:58:15;27.60;83.10
11221;DHT22;8517;53.546;10.104;2023-06-14T15:00:43;27.60;82.40
11221;DHT22;8517;53.546;10.104;2023-06-14T15:03:10;27.60;82.70
11221;DHT22;8517;53.546;10.104;2023-06-14T15:05:37;27.60;82.80
11221;DHT22;8517;53.546;10.104;2023-06-14T15:08:05;27.70;82.70
11221;DHT22;8517;53.546;10.104;2023-06-14T15:10:37;27.70;81.90
11221;DHT22;8517;53.546;10.104;2023-06-14T15:13:06;27.80;81.80
11221;DHT22;8517;53.546;10.104;2023-06-14T15:15:33;27.80;81.40
11221;DHT22;8517;53.546;10.104;2023-06-14T15:18:00;27.80;82.00
11221;DHT22;8517;53.546;10.104;2023-06-14T15:20:32;27.80;81.60
11221;DHT22;8517;53.546;10.104;2023-06-14T15:22:59;27.80;81.20
11221;DHT22;8517;53.546;10.104;2023-06-14T15:25:28;27.80;81.40
11221;DHT22;8517;53.546;10.104;2023-06-14T15:27:55;27.70;81.30
11221;DHT22;8517;53.546;10.104;2023-06-14T15:30:22;27.70;81.20
11221;DHT22;8517;53.546;10.104;2023-06-14T15:32:49;27.70;81.90
11221;DHT22;8517;53.546;10.104;2023-06-14T15:35:17;27.70;81.10
11221;DHT22;8517;53.546;10.104;2023-06-14T15:37:44;27.80;81.10
11221;DHT22;8517;53.546;10.104;2023-06-14T15:40:11;27.80;80.70
11221;DHT22;8517;53.546;10.104;2023-06-14T15:42:40;27.80;80.40
11221;DHT22;8517;53.546;10.104;2023-06-14T15:45:07;27.80;80.00